sensor_id;sensor_type;location;lat;lon;timestamp;pressure;altitude;pressure_sealevel;temperature;humidity
12182;BME280;6154;51.550;12.138;2024-01-30T00:02:30;101898.22;;;8.48;58.72
12182;BME280;6154;51.550;12.138;2024-01-30T00:04:58;101892.19;;;8.42;58.56
12182;BME280;6154;51.550;12.138;2024-01-30T00:07:26;101896.53;;;8.46;58.76
12182;BME280;6154;51.550;12.138;2024-01-30T00:09:54;101901.00;;;8.42;59.04
12182;BME280;6154;51.550;12.138;2024-01-30T00:12:24;101898.53;;;8.31;59.59
12182;BME280;6154;51.550;12.138;2024-01-30T00:14:53;101899.44;;;8.30;59.74
12182;BME280;6154;51.550;12.138;2024-01-30T00:17:21;101892.62;;;8.20;60.36
12182;BME280;6154;51.550;12.138;2024-01-30T00:19:49;101897.00;;;8.23;60.25
12182;BME280;6154;51.550;12.138;2024-01-30T00:22:17;101897.63;;;8.34;59.91
12182;BME280;6154;51.550;12.138;2024-01-30T00:24:45;101894.91;;;8.39;59.58
12182;BME280;6154;51.550;12.138;2024-01-30T00:27:14;101886.91;;;8.43;59.89
12182;BME280;6154;51.550;12.138;2024-01-30T00:29:43;101888.66;;;8.44;60.38
12182;BME280;6154;51.550;12.138;2024-01-30T00:32:11;101893.72;;;8.53;60.28
12182;BME280;6154;51.550;12.138;2024-01-30T00:34:39;101891.81;;;8.58;60.21
12182;BME280;6154;51.550;12.138;2024-01-30T00:37:07;101896.25;;;8.58;60.01
12182;BME280;6154;51.550;12.138;2024-01-30T00:39:35;101890.63;;;8.72;59.85
12182;BME280;6154;51.550;12.138;2024-01-30T00:42:03;101891.53;;;8.71;59.91
12182;BME280;6154;51.550;12.138;2024-01-30T00:44:34;101894.22;;;8.69;60.13
12182;BME280;6154;51.550;12.138;2024-01-30T00:47:04;101896.84;;;8.69;60.33
12182;BME280;6154;51.550;12.138;2024-01-30T00:49:32;101882.06;;;8.63;60.08
12182;BME280;6154;51.550;12.138;2024-01-30T00:52:00;101881.06;;;8.68;60.38
12182;BME280;6154;51.550;12.138;2024-01-30T00:54:29;101880.13;;;8.70;60.15
12182;BME280;6154;51.550;12.138;2024-01-30T00:56:57;101893.38;;;8.67;60.36
12182;BME280;6154;51.550;12.138;2024-01-30T00:59:25;101888.00;;;8.72;60.42
12182;BME280;6154;51.550;12.138;2024-01-30T01:01:53;101880.94;;;8.74;60.28
12182;BME280;6154;51.550;12.138;2024-01-30T01:04:22;101891.50;;;8.74;60.37
12182;BME280;6154;51.550;12.138;2024-01-30T01:06:51;101879.16;;;8.74;60.25
12182;BME280;6154;51.550;12.138;2024-01-30T01:09:29;101882.44;;;8.84;60.00
12182;BME280;6154;51.550;12.138;2024-01-30T01:11:59;101887.72;;;8.84;59.86
12182;BME280;6154;51.550;12.138;2024-01-30T01:14:31;101886.50;;;8.97;59.76
12182;BME280;6154;51.550;12.138;2024-01-30T01:17:00;101882.13;;;8.96;59.66
12182;BME280;6154;51.550;12.138;2024-01-30T01:19:30;101881.81;;;9.08;59.23
12182;BME280;6154;51.550;12.138;2024-01-30T01:22:00;101881.81;;;9.08;59.17
12182;BME280;6154;51.550;12.138;2024-01-30T01:24:31;101883.50;;;9.12;59.01
12182;BME280;6154;51.550;12.138;2024-01-30T01:27:00;101881.00;;;9.06;59.33
12182;BME280;6154;51.550;12.138;2024-01-30T01:29:42;101873.84;;;9.10;59.12
12182;BME280;6154;51.550;12.138;2024-01-30T01:32:11;101871.78;;;9.23;58.72
12182;BME280;6154;51.550;12.138;2024-01-30T01:34:46;101876.31;;;9.17;58.71
12182;BME280;6154;51.550;12.138;2024-01-30T01:37:14;101876.53;;;9.08;58.99
12182;BME280;6154;51.550;12.138;2024-01-30T01:39:42;101873.06;;;9.06;58.96
12182;BME280;6154;51.550;12.138;2024-01-30T01:42:10;101878.34;;;9.06;58.99
12182;BME280;6154;51.550;12.138;2024-01-30T01:44:38;101867.87;;;9.03;59.20
12182;BME280;6154;51.550;12.138;2024-01-30T01:47:06;101873.06;;;9.06;59.08
12182;BME280;6154;51.550;12.138;2024-01-30T01:49:34;101870.34;;;9.09;58.92
12182;BME280;6154;51.550;12.138;2024-01-30T01:52:05;101861.53;;;9.10;58.72
12182;BME280;6154;51.550;12.138;2024-01-30T01:54:34;101867.87;;;9.03;58.83
12182;BME280;6154;51.550;12.138;2024-01-30T01:57:02;101859.19;;;8.98;58.94
12182;BME280;6154;51.550;12.138;2024-01-30T01:59:31;101861.16;;;8.90;58.89
12182;BME280;6154;51.550;12.138;2024-01-30T02:02:01;101863.66;;;8.96;58.71
12182;BME280;6154;51.550;12.138;2024-01-30T02:04:30;101862.88;;;8.91;59.13
12182;BME280;6154;51.550;12.138;2024-01-30T02:06:58;101865.56;;;8.89;58.98
12182;BME280;6154;51.550;12.138;2024-01-30T02:09:30;101863.00;;;8.86;59.03
12182;BME280;6154;51.550;12.138;2024-01-30T02:12:01;101863.06;;;8.85;59.08
12182;BME280;6154;51.550;12.138;2024-01-30T02:14:29;101863.16;;;8.80;58.99
12182;BME280;6154;51.550;12.138;2024-01-30T02:16:57;101853.47;;;8.81;58.93
12182;BME280;6154;51.550;12.138;2024-01-30T02:19:30;101857.13;;;8.75;59.29
12182;BME280;6154;51.550;12.138;2024-01-30T02:21:59;101853.72;;;8.70;59.26
12182;BME280;6154;51.550;12.138;2024-01-30T02:24:27;101844.41;;;8.55;59.57
12182;BME280;6154;51.550;12.138;2024-01-30T02:26:55;101848.00;;;8.51;59.69
12182;BME280;6154;51.550;12.138;2024-01-30T02:29:23;101848.00;;;8.51;59.70
12182;BME280;6154;51.550;12.138;2024-01-30T02:31:51;101858.81;;;8.42;59.54
12182;BME280;6154;51.550;12.138;2024-01-30T02:34:19;101857.09;;;8.40;59.70
12182;BME280;6154;51.550;12.138;2024-01-30T02:36:48;101858.03;;;8.37;59.72
12182;BME280;6154;51.550;12.138;2024-01-30T02:39:17;101855.31;;;8.40;59.57
12182;BME280;6154;51.550;12.138;2024-01-30T02:41:45;101855.47;;;8.31;59.55
12182;BME280;6154;51.550;12.138;2024-01-30T02:44:13;101853.72;;;8.33;59.57
12182;BME280;6154;51.550;12.138;2024-01-30T02:46:41;101851.94;;;8.35;59.44
12182;BME280;6154;51.550;12.138;2024-01-30T02:49:09;101847.72;;;8.25;59.54
12182;BME280;6154;51.550;12.138;2024-01-30T02:51:37;101843.47;;;8.18;59.87
12182;BME280;6154;51.550;12.138;2024-01-30T02:54:05;101841.06;;;8.08;60.07
12182;BME280;6154;51.550;12.138;2024-01-30T02:56:34;101835.84;;;8.05;60.27
12182;BME280;6154;51.550;12.138;2024-01-30T02:59:02;101835.94;;;8.02;60.36
12182;BME280;6154;51.550;12.138;2024-01-30T03:01:30;101838.44;;;8.07;60.51
12182;BME280;6154;51.550;12.138;2024-01-30T03:03:59;101842.06;;;8.03;60.52
12182;BME280;6154;51.550;12.138;2024-01-30T03:06:27;101844.72;;;8.01;60.73
12182;BME280;6154;51.550;12.138;2024-01-30T03:08:55;101844.72;;;8.03;60.71
12182;BME280;6154;51.550;12.138;2024-01-30T03:11:23;101841.94;;;8.07;60.85
12182;BME280;6154;51.550;12.138;2024-01-30T03:13:53;101837.59;;;8.06;60.94
12182;BME280;6154;51.550;12.138;2024-01-30T03:16:21;101840.97;;;8.12;60.71
12182;BME280;6154;51.550;12.138;2024-01-30T03:18:49;101835.03;;;8.03;60.84
12182;BME280;6154;51.550;12.138;2024-01-30T03:21:17;101833.72;;;8.21;60.52
12182;BME280;6154;51.550;12.138;2024-01-30T03:23:45;101840.06;;;8.14;60.55
12182;BME280;6154;51.550;12.138;2024-01-30T03:26:13;101829.34;;;8.22;60.36
12182;BME280;6154;51.550;12.138;2024-01-30T03:28:42;101838.09;;;8.24;60.48
12182;BME280;6154;51.550;12.138;2024-01-30T03:31:14;101831.09;;;8.21;60.36
12182;BME280;6154;51.550;12.138;2024-01-30T03:33:42;101841.44;;;8.32;60.22
12182;BME280;6154;51.550;12.138;2024-01-30T03:36:10;101830.78;;;8.37;59.90
12182;BME280;6154;51.550;12.138;2024-01-30T03:38:39;101831.66;;;8.37;59.83
12182;BME280;6154;51.550;12.138;2024-01-30T03:41:07;101839.63;;;8.34;59.79
12182;BME280;6154;51.550;12.138;2024-01-30T03:43:36;101834.34;;;8.34;59.64
12182;BME280;6154;51.550;12.138;2024-01-30T03:46:04;101834.63;;;8.22;59.86
12182;BME280;6154;51.550;12.138;2024-01-30T03:48:33;101837.03;;;8.32;59.62
12182;BME280;6154;51.550;12.138;2024-01-30T03:51:01;101833.56;;;8.29;59.60
12182;BME280;6154;51.550;12.138;2024-01-30T03:53:29;101837.94;;;8.30;59.61
12182;BME280;6154;51.550;12.138;2024-01-30T03:55:57;101842.38;;;8.28;59.56
12182;BME280;6154;51.550;12.138;2024-01-30T03:58:25;101852.03;;;8.29;59.45
12182;BME280;6154;51.550;12.138;2024-01-30T04:00:54;101837.09;;;8.28;59.63
12182;BME280;6154;51.550;12.138;2024-01-30T04:03:22;101834.47;;;8.28;59.54
12182;BME280;6154;51.550;12.138;2024-01-30T04:05:52;101838.88;;;8.27;59.64
12182;BME280;6154;51.550;12.138;2024-01-30T04:08:20;101834.63;;;8.20;59.71
12182;BME280;6154;51.550;12.138;2024-01-30T04:10:48;101824.00;;;8.25;59.79
12182;BME280;6154;51.550;12.138;2024-01-30T04:13:16;101825.81;;;8.23;59.95
12182;BME280;6154;51.550;12.138;2024-01-30T04:15:44;101825.84;;;8.20;60.17
12182;BME280;6154;51.550;12.138;2024-01-30T04:18:12;101831.09;;;8.23;60.10
12182;BME280;6154;51.550;12.138;2024-01-30T04:20:40;101818.81;;;8.22;60.12
12182;BME280;6154;51.550;12.138;2024-01-30T04:23:10;101831.22;;;8.17;60.30
12182;BME280;6154;51.550;12.138;2024-01-30T04:25:38;101828.53;;;8.18;60.34
12182;BME280;6154;51.550;12.138;2024-01-30T04:28:06;101821.19;;;8.32;60.01
12182;BME280;6154;51.550;12.138;2024-01-30T04:30:34;101827.22;;;8.39;59.64
12182;BME280;6154;51.550;12.138;2024-01-30T04:33:02;101821.09;;;8.37;59.64
12182;BME280;6154;51.550;12.138;2024-01-30T04:35:30;101823.75;;;8.37;59.64
12182;BME280;6154;51.550;12.138;2024-01-30T04:37:58;101827.28;;;8.36;59.63
12182;BME280;6154;51.550;12.138;2024-01-30T04:40:28;101820.19;;;8.38;59.45
12182;BME280;6154;51.550;12.138;2024-01-30T04:42:56;101815.88;;;8.34;59.49
12182;BME280;6154;51.550;12.138;2024-01-30T04:45:25;101823.87;;;8.29;59.56
12182;BME280;6154;51.550;12.138;2024-01-30T04:47:53;101830.84;;;8.35;59.42
12182;BME280;6154;51.550;12.138;2024-01-30T04:50:21;101831.94;;;8.23;59.58
12182;BME280;6154;51.550;12.138;2024-01-30T04:52:50;101827.47;;;8.27;59.54
12182;BME280;6154;51.550;12.138;2024-01-30T04:58:20;101829.34;;;8.22;59.40
12182;BME280;6154;51.550;12.138;2024-01-30T05:00:50;101825.59;;;8.30;59.31
12182;BME280;6154;51.550;12.138;2024-01-30T05:03:26;101831.91;;;8.25;59.18
12182;BME280;6154;51.550;12.138;2024-01-30T05:05:56;101832.78;;;8.25;59.17
12182;BME280;6154;51.550;12.138;2024-01-30T05:08:26;101837.94;;;8.30;58.94
12182;BME280;6154;51.550;12.138;2024-01-30T05:10:54;101830.94;;;8.29;58.92
12182;BME280;6154;51.550;12.138;2024-01-30T05:13:24;101833.72;;;8.21;59.07
12182;BME280;6154;51.550;12.138;2024-01-30T05:15:51;101829.47;;;8.16;59.12
12182;BME280;6154;51.550;12.138;2024-01-30T05:18:20;101826.34;;;7.98;59.36
12182;BME280;6154;51.550;12.138;2024-01-30T05:20:49;101821.00;;;8.01;59.31
12182;BME280;6154;51.550;12.138;2024-01-30T05:23:17;101821.06;;;7.98;59.16
12182;BME280;6154;51.550;12.138;2024-01-30T05:25:46;101820.31;;;7.93;59.38
12182;BME280;6154;51.550;12.138;2024-01-30T05:28:13;101824.72;;;7.91;59.38
12182;BME280;6154;51.550;12.138;2024-01-30T05:30:43;101818.69;;;7.86;59.53
12182;BME280;6154;51.550;12.138;2024-01-30T05:33:11;101819.72;;;7.79;59.62
12182;BME280;6154;51.550;12.138;2024-01-30T05:35:40;101826.78;;;7.77;59.54
12182;BME280;6154;51.550;12.138;2024-01-30T05:38:08;101824.19;;;7.75;59.43
12182;BME280;6154;51.550;12.138;2024-01-30T05:40:37;101817.28;;;7.70;59.72
12182;BME280;6154;51.550;12.138;2024-01-30T05:43:05;101820.22;;;7.55;60.15
12182;BME280;6154;51.550;12.138;2024-01-30T05:45:33;101821.00;;;7.60;60.11
12182;BME280;6154;51.550;12.138;2024-01-30T05:48:04;101815.75;;;7.58;60.18
12182;BME280;6154;51.550;12.138;2024-01-30T05:50:32;101827.13;;;7.62;59.89
12182;BME280;6154;51.550;12.138;2024-01-30T05:53:00;101819.38;;;7.54;60.00
12182;BME280;6154;51.550;12.138;2024-01-30T05:55:28;101822.06;;;7.49;60.54
12182;BME280;6154;51.550;12.138;2024-01-30T05:57:56;101822.94;;;7.50;60.62
12182;BME280;6154;51.550;12.138;2024-01-30T06:00:24;101818.62;;;7.47;60.64
12182;BME280;6154;51.550;12.138;2024-01-30T06:02:52;101825.69;;;7.45;60.83
12182;BME280;6154;51.550;12.138;2024-01-30T06:05:21;101817.13;;;7.34;61.20
12182;BME280;6154;51.550;12.138;2024-01-30T06:07:49;101822.22;;;7.43;61.08
12182;BME280;6154;51.550;12.138;2024-01-30T06:10:18;101818.62;;;7.47;60.80
12182;BME280;6154;51.550;12.138;2024-01-30T06:12:46;101823.00;;;7.47;60.69
12182;BME280;6154;51.550;12.138;2024-01-30T06:15:15;101821.22;;;7.49;60.70
12182;BME280;6154;51.550;12.138;2024-01-30T06:17:43;101815.06;;;7.48;60.70
12182;BME280;6154;51.550;12.138;2024-01-30T06:20:11;101810.69;;;7.49;60.75
12182;BME280;6154;51.550;12.138;2024-01-30T06:22:40;101811.53;;;7.49;60.64
12182;BME280;6154;51.550;12.138;2024-01-30T06:25:09;101802.91;;;7.41;60.81
12182;BME280;6154;51.550;12.138;2024-01-30T06:27:39;101798.59;;;7.39;60.91
12182;BME280;6154;51.550;12.138;2024-01-30T06:30:07;101798.63;;;7.37;61.03
12182;BME280;6154;51.550;12.138;2024-01-30T06:32:36;101798.72;;;7.31;61.05
12182;BME280;6154;51.550;12.138;2024-01-30T06:35:05;101797.75;;;7.37;60.93
12182;BME280;6154;51.550;12.138;2024-01-30T06:37:33;101808.25;;;7.38;60.90
12182;BME280;6154;51.550;12.138;2024-01-30T06:40:03;101804.69;;;7.42;60.70
12182;BME280;6154;51.550;12.138;2024-01-30T06:42:32;101810.59;;;7.54;60.44
12182;BME280;6154;51.550;12.138;2024-01-30T06:44:59;101804.50;;;7.52;60.12
12182;BME280;6154;51.550;12.138;2024-01-30T06:47:29;101804.31;;;7.59;60.16
12182;BME280;6154;51.550;12.138;2024-01-30T06:49:58;101794.94;;;7.46;60.40
12182;BME280;6154;51.550;12.138;2024-01-30T06:52:26;101797.47;;;7.50;60.29
12182;BME280;6154;51.550;12.138;2024-01-30T06:54:54;101802.72;;;7.50;60.25
12182;BME280;6154;51.550;12.138;2024-01-30T06:57:23;101808.03;;;7.49;60.19
12182;BME280;6154;51.550;12.138;2024-01-30T06:59:51;101809.78;;;7.52;60.20
12182;BME280;6154;51.550;12.138;2024-01-30T07:02:19;101800.19;;;7.47;60.34
12182;BME280;6154;51.550;12.138;2024-01-30T07:04:47;101797.50;;;7.49;60.34
12182;BME280;6154;51.550;12.138;2024-01-30T07:07:16;101788.81;;;7.45;60.40
12182;BME280;6154;51.550;12.138;2024-01-30T07:09:44;101792.19;;;7.50;60.36
12182;BME280;6154;51.550;12.138;2024-01-30T07:12:14;101798.50;;;7.43;60.32
12182;BME280;6154;51.550;12.138;2024-01-30T07:14:43;101800.22;;;7.46;60.42
12182;BME280;6154;51.550;12.138;2024-01-30T07:17:11;101797.62;;;7.44;60.40
12182;BME280;6154;51.550;12.138;2024-01-30T07:19:39;101797.47;;;7.52;60.35
12182;BME280;6154;51.550;12.138;2024-01-30T07:22:07;101800.13;;;7.49;60.42
12182;BME280;6154;51.550;12.138;2024-01-30T07:24:36;101806.91;;;7.61;60.24
12182;BME280;6154;51.550;12.138;2024-01-30T07:27:04;101816.44;;;7.68;59.90
12182;BME280;6154;51.550;12.138;2024-01-30T07:29:32;101807.53;;;7.75;59.65
12182;BME280;6154;51.550;12.138;2024-01-30T07:32:02;101805.63;;;7.80;59.55
12182;BME280;6154;51.550;12.138;2024-01-30T07:34:30;101806.53;;;7.79;59.64
12182;BME280;6154;51.550;12.138;2024-01-30T07:37:05;101812.59;;;7.84;59.59
12182;BME280;6154;51.550;12.138;2024-01-30T07:39:35;101812.53;;;7.87;59.46
12182;BME280;6154;51.550;12.138;2024-01-30T07:42:03;101812.59;;;7.84;59.49
12182;BME280;6154;51.550;12.138;2024-01-30T07:44:34;101804.81;;;7.78;59.67
12182;BME280;6154;51.550;12.138;2024-01-30T07:47:05;101802.19;;;7.78;59.80
12182;BME280;6154;51.550;12.138;2024-01-30T07:49:33;101796.06;;;7.76;59.81
12182;BME280;6154;51.550;12.138;2024-01-30T07:52:01;101803.91;;;7.79;59.79
12182;BME280;6154;51.550;12.138;2024-01-30T07:54:29;101805.59;;;7.83;59.83
12182;BME280;6154;51.550;12.138;2024-01-30T07:57:00;101800.28;;;7.85;59.74
12182;BME280;6154;51.550;12.138;2024-01-30T07:59:28;101809.06;;;7.85;59.73
12182;BME280;6154;51.550;12.138;2024-01-30T08:01:56;101799.34;;;7.87;59.50
12182;BME280;6154;51.550;12.138;2024-01-30T08:04:26;101803.53;;;7.97;59.45
12182;BME280;6154;51.550;12.138;2024-01-30T08:06:54;101797.25;;;8.01;59.35
12182;BME280;6154;51.550;12.138;2024-01-30T08:09:22;101806.75;;;8.10;59.20
12182;BME280;6154;51.550;12.138;2024-01-30T08:11:50;101799.69;;;8.11;59.02
12182;BME280;6154;51.550;12.138;2024-01-30T08:14:18;101804.84;;;8.17;59.05
12182;BME280;6154;51.550;12.138;2024-01-30T08:16:46;101795.16;;;8.17;59.04
12182;BME280;6154;51.550;12.138;2024-01-30T08:19:14;101802.91;;;8.25;58.73
12182;BME280;6154;51.550;12.138;2024-01-30T08:21:43;101793.91;;;8.35;58.78
12182;BME280;6154;51.550;12.138;2024-01-30T08:24:12;101795.47;;;8.44;58.56
12182;BME280;6154;51.550;12.138;2024-01-30T08:26:40;101796.84;;;8.58;58.65
12182;BME280;6154;51.550;12.138;2024-01-30T08:29:08;101791.28;;;8.69;58.29
12182;BME280;6154;51.550;12.138;2024-01-30T08:31:36;101797.16;;;8.80;58.05
12182;BME280;6154;51.550;12.138;2024-01-30T08:34:04;101804.81;;;8.92;58.07
12182;BME280;6154;51.550;12.138;2024-01-30T08:36:32;101802.84;;;8.99;57.81
12182;BME280;6154;51.550;12.138;2024-01-30T08:39:01;101807.97;;;9.05;57.73
12182;BME280;6154;51.550;12.138;2024-01-30T08:41:32;101806.00;;;9.13;57.65
12182;BME280;6154;51.550;12.138;2024-01-30T08:44:00;101799.56;;;9.24;57.58
12182;BME280;6154;51.550;12.138;2024-01-30T08:46:28;101799.53;;;9.25;57.21
12182;BME280;6154;51.550;12.138;2024-01-30T08:48:57;101798.34;;;9.35;57.25
12182;BME280;6154;51.550;12.138;2024-01-30T08:51:25;101794.66;;;9.42;57.06
12182;BME280;6154;51.550;12.138;2024-01-30T08:53:53;101788.12;;;9.54;57.14
12182;BME280;6154;51.550;12.138;2024-01-30T08:56:23;101781.69;;;9.64;56.88
12182;BME280;6154;51.550;12.138;2024-01-30T08:58:51;101784.81;;;9.77;56.98
12182;BME280;6154;51.550;12.138;2024-01-30T09:01:19;101781.84;;;9.88;56.88
12182;BME280;6154;51.550;12.138;2024-01-30T09:03:47;101790.31;;;9.99;56.66
12182;BME280;6154;51.550;12.138;2024-01-30T09:06:15;101784.81;;;10.06;56.37
12182;BME280;6154;51.550;12.138;2024-01-30T09:08:43;101790.56;;;10.19;56.79
12182;BME280;6154;51.550;12.138;2024-01-30T09:11:12;101788.59;;;10.27;56.54
12182;BME280;6154;51.550;12.138;2024-01-30T09:13:41;101787.31;;;10.39;56.64
12182;BME280;6154;51.550;12.138;2024-01-30T09:16:10;101792.22;;;10.51;56.60
12182;BME280;6154;51.550;12.138;2024-01-30T09:18:38;101782.97;;;10.64;56.66
12182;BME280;6154;51.550;12.138;2024-01-30T09:21:06;101787.97;;;10.74;56.33
12182;BME280;6154;51.550;12.138;2024-01-30T09:23:34;101792.09;;;10.82;56.24
12182;BME280;6154;51.550;12.138;2024-01-30T09:26:02;101796.34;;;10.86;55.90
12182;BME280;6154;51.550;12.138;2024-01-30T09:28:30;101790.72;;;10.96;56.09
12182;BME280;6154;51.550;12.138;2024-01-30T09:30:59;101789.37;;;11.09;56.24
12182;BME280;6154;51.550;12.138;2024-01-30T09:33:27;101796.84;;;11.22;56.20
12182;BME280;6154;51.550;12.138;2024-01-30T09:35:55;101794.16;;;11.24;55.74
12182;BME280;6154;51.550;12.138;2024-01-30T09:38:23;101798.81;;;11.41;56.03
12182;BME280;6154;51.550;12.138;2024-01-30T09:40:54;101788.75;;;11.50;56.10
12182;BME280;6154;51.550;12.138;2024-01-30T09:43:23;101794.75;;;11.56;55.85
12182;BME280;6154;51.550;12.138;2024-01-30T09:45:54;101790.97;;;11.63;55.75
12182;BME280;6154;51.550;12.138;2024-01-30T09:48:25;101791.59;;;11.69;55.99
12182;BME280;6154;51.550;12.138;2024-01-30T09:50:55;101795.03;;;11.71;55.55
12182;BME280;6154;51.550;12.138;2024-01-30T09:53:25;101789.44;;;11.79;55.45
12182;BME280;6154;51.550;12.138;2024-01-30T09:55:53;101791.72;;;11.90;55.92
12182;BME280;6154;51.550;12.138;2024-01-30T09:58:21;101791.44;;;11.97;55.92
12182;BME280;6154;51.550;12.138;2024-01-30T10:00:49;101788.84;;;11.96;55.37
12182;BME280;6154;51.550;12.138;2024-01-30T10:03:17;101784.41;;;11.96;55.76
12182;BME280;6154;51.550;12.138;2024-01-30T10:05:50;101784.03;;;12.05;55.95
12182;BME280;6154;51.550;12.138;2024-01-30T10:08:19;101782.37;;;12.03;55.26
12182;BME280;6154;51.550;12.138;2024-01-30T10:10:47;101776.09;;;12.05;55.52
12182;BME280;6154;51.550;12.138;2024-01-30T10:13:16;101781.09;;;12.13;55.79
12182;BME280;6154;51.550;12.138;2024-01-30T10:15:48;101781.47;;;12.26;55.79
12182;BME280;6154;51.550;12.138;2024-01-30T10:18:17;101779.97;;;12.41;55.66
12182;BME280;6154;51.550;12.138;2024-01-30T10:20:45;101785.09;;;12.45;55.07
12182;BME280;6154;51.550;12.138;2024-01-30T10:23:15;101785.66;;;12.53;55.22
12182;BME280;6154;51.550;12.138;2024-01-30T10:25:43;101783.00;;;12.53;55.19
12182;BME280;6154;51.550;12.138;2024-01-30T10:28:11;101771.78;;;12.67;55.35
12182;BME280;6154;51.550;12.138;2024-01-30T10:30:39;101773.53;;;12.68;54.80
12182;BME280;6154;51.550;12.138;2024-01-30T10:33:07;101775.87;;;12.76;55.31
12182;BME280;6154;51.550;12.138;2024-01-30T10:35:36;101774.62;;;12.84;55.27
12182;BME280;6154;51.550;12.138;2024-01-30T10:38:06;101771.66;;;12.90;55.30
12182;BME280;6154;51.550;12.138;2024-01-30T10:40:38;101762.66;;;12.94;55.26
12182;BME280;6154;51.550;12.138;2024-01-30T10:43:09;101762.84;;;13.10;55.56
12182;BME280;6154;51.550;12.138;2024-01-30T10:45:40;101762.56;;;13.16;55.12
12182;BME280;6154;51.550;12.138;2024-01-30T10:48:12;101761.59;;;13.19;55.03
12182;BME280;6154;51.550;12.138;2024-01-30T10:50:41;101754.34;;;13.22;54.29
12182;BME280;6154;51.550;12.138;2024-01-30T10:53:20;101756.56;;;13.33;55.17
12182;BME280;6154;51.550;12.138;2024-01-30T10:55:51;101753.41;;;13.44;55.50
12182;BME280;6154;51.550;12.138;2024-01-30T10:58:20;101751.94;;;13.37;54.54
12182;BME280;6154;51.550;12.138;2024-01-30T11:00:49;101753.09;;;13.50;55.10
12182;BME280;6154;51.550;12.138;2024-01-30T11:03:19;101744.34;;;13.48;54.57
12182;BME280;6154;51.550;12.138;2024-01-30T11:05:49;101741.91;;;13.62;55.16
12182;BME280;6154;51.550;12.138;2024-01-30T11:08:23;101733.28;;;13.57;54.82
12182;BME280;6154;51.550;12.138;2024-01-30T11:10:55;101737.03;;;13.53;53.95
12182;BME280;6154;51.550;12.138;2024-01-30T11:13:26;101739.31;;;13.61;53.57
12182;BME280;6154;51.550;12.138;2024-01-30T11:15:55;101747.97;;;13.66;54.00
12182;BME280;6154;51.550;12.138;2024-01-30T11:18:29;101737.22;;;13.86;54.29
12182;BME280;6154;51.550;12.138;2024-01-30T11:20:58;101739.63;;;13.73;54.19
12182;BME280;6154;51.550;12.138;2024-01-30T11:23:28;101733.00;;;13.63;53.77
12182;BME280;6154;51.550;12.138;2024-01-30T11:25:58;101727.63;;;13.65;53.97
12182;BME280;6154;51.550;12.138;2024-01-30T11:28:32;101732.53;;;13.91;54.45
12182;BME280;6154;51.550;12.138;2024-01-30T11:31:04;101725.97;;;14.17;54.09
12182;BME280;6154;51.550;12.138;2024-01-30T11:33:32;101730.38;;;13.99;53.58
12182;BME280;6154;51.550;12.138;2024-01-30T11:36:01;101726.91;;;14.16;54.43
12182;BME280;6154;51.550;12.138;2024-01-30T11:38:29;101723.62;;;14.28;54.85
12182;BME280;6154;51.550;12.138;2024-01-30T11:40:59;101719.47;;;14.59;54.90
12182;BME280;6154;51.550;12.138;2024-01-30T11:43:28;101721.19;;;14.77;53.91
12182;BME280;6154;51.550;12.138;2024-01-30T11:45:56;101716.84;;;14.92;54.56
12182;BME280;6154;51.550;12.138;2024-01-30T11:48:26;101709.66;;;14.94;52.74
12182;BME280;6154;51.550;12.138;2024-01-30T11:50:54;101705.22;;;15.10;53.60
12182;BME280;6154;51.550;12.138;2024-01-30T11:53:22;101701.69;;;15.10;53.39
12182;BME280;6154;51.550;12.138;2024-01-30T11:55:50;101695.41;;;15.11;54.16
12182;BME280;6154;51.550;12.138;2024-01-30T11:58:20;101687.69;;;15.22;53.88
12182;BME280;6154;51.550;12.138;2024-01-30T12:00:55;101687.37;;;15.28;53.48
12182;BME280;6154;51.550;12.138;2024-01-30T12:03:24;101688.81;;;15.18;52.29
12182;BME280;6154;51.550;12.138;2024-01-30T12:05:56;101684.44;;;15.17;54.05
12182;BME280;6154;51.550;12.138;2024-01-30T12:08:25;101693.12;;;15.20;53.90
12182;BME280;6154;51.550;12.138;2024-01-30T12:10:57;101691.53;;;15.01;53.53
12182;BME280;6154;51.550;12.138;2024-01-30T12:13:29;101690.94;;;15.11;53.23
12182;BME280;6154;51.550;12.138;2024-01-30T12:15:59;101691.81;;;15.12;53.31
12182;BME280;6154;51.550;12.138;2024-01-30T12:18:28;101687.34;;;15.12;53.40
12182;BME280;6154;51.550;12.138;2024-01-30T12:20:57;101691.25;;;15.38;53.71
12182;BME280;6154;51.550;12.138;2024-01-30T12:23:27;101675.00;;;15.59;54.51
12182;BME280;6154;51.550;12.138;2024-01-30T12:25:55;101678.06;;;15.84;54.41
12182;BME280;6154;51.550;12.138;2024-01-30T12:28:23;101675.03;;;15.90;53.21
12182;BME280;6154;51.550;12.138;2024-01-30T12:30:55;101675.47;;;15.98;53.07
12182;BME280;6154;51.550;12.138;2024-01-30T12:33:26;101670.44;;;16.08;52.39
12182;BME280;6154;51.550;12.138;2024-01-30T12:35:54;101664.47;;;16.19;52.45
12182;BME280;6154;51.550;12.138;2024-01-30T12:38:29;101662.12;;;16.28;53.01
12182;BME280;6154;51.550;12.138;2024-01-30T12:40:57;101655.16;;;16.26;53.42
12182;BME280;6154;51.550;12.138;2024-01-30T12:43:25;101650.72;;;16.10;52.69
12182;BME280;6154;51.550;12.138;2024-01-30T12:46:06;101647.06;;;16.27;53.27
12182;BME280;6154;51.550;12.138;2024-01-30T12:48:34;101639.16;;;16.40;53.27
12182;BME280;6154;51.550;12.138;2024-01-30T12:51:03;101639.87;;;16.44;53.24
12182;BME280;6154;51.550;12.138;2024-01-30T12:53:31;101634.88;;;16.52;53.33
12182;BME280;6154;51.550;12.138;2024-01-30T12:55:59;101629.09;;;16.59;53.98
12182;BME280;6154;51.550;12.138;2024-01-30T12:58:27;101632.59;;;16.90;54.04
12182;BME280;6154;51.550;12.138;2024-01-30T13:00:56;101638.13;;;17.01;53.99
12182;BME280;6154;51.550;12.138;2024-01-30T13:03:26;101637.53;;;17.10;53.33
12182;BME280;6154;51.550;12.138;2024-01-30T13:05:54;101639.66;;;17.19;53.83
12182;BME280;6154;51.550;12.138;2024-01-30T13:08:23;101642.25;;;17.07;52.76
12182;BME280;6154;51.550;12.138;2024-01-30T13:10:51;101647.78;;;17.04;52.14